Meath Environmental Platform

Observations for Trim Patrick St

Time AQI Temp °C Hum % Pres Pa CO μg/m³ H₂S μg/m³ NO μg/m³ NO₂ μg/m³ O₃ μg/m³ SO₂ μg/m³ PM1 μg/m³ PM2.5 μg/m³ PM10 μg/m³
Friday 28 August 2026
08:05 2 17.1 88 38,459 0.22 2.96 2.34 2.01 43.41 0 15.71 20.42 22.47
08:04 2 17 88 38,459 0.24 2.33 2.36 3.69 31.53 0 14.86 23.17 25.49
08:03 2 17 88 38,459 0.23 2.83 2.37 2.88 36.76 0 16.57 24.52 26.98
08:02 2 17 88 38,459 0.23 2.17 2.38 4.68 37.06 0 16.57 23.84 26.22
08:01 2 17 88 38,459 0.28 2.64 2.39 1.2 42.24 0 17.43 24.51 26.96
08:00 2 17 88 38,459 0.32 2.9 2.41 2.28 32.87 0.19 15.71 23.14 25.46
07:59 2 16.9 88 38,459 0.26 2.7 2.39 2.05 37.33 0 17.43 25.17 26.3
07:58 2 16.9 88 38,459 0.24 2.88 2.37 6.2 41.46 0 18.29 25.19 27.71
07:57 2 16.9 88 38,459 0.24 2.54 2.37 4.16 38.89 0 15.71 23.13 25.45
07:56 2 16.9 88 38,459 0.23 2.77 2.36 16.71 27.21 0 18.29 25.18 27.7
07:55 2 16.8 88 38,459 0.24 2.36 2.37 3.54 33.95 0 18.29 23.8 26.18
07:54 2 16.8 88 38,459 0.23 2.33 2.35 1.75 37.61 0 17.43 23.8 26.18
07:53 2 16.8 88 38,459 0.24 2.93 2.38 1.84 41.93 0 18.29 25.16 27.67
07:52 2 16.7 88 38,459 0.23 2.72 2.36 3.45 37.48 0 18.29 23.78 26.16
07:50 2 16.7 88 38,459 0.24 2.31 2.38 1.46 40.54 0.31 17.43 24.45 26.89
07:49 2 16.7 88 38,459 0.24 2.28 2.4 1.8 39.42 0 18.29 23.77 26.14
07:48 2 16.6 88 38,459 0.24 2.49 2.4 2.03 35.09 0 18.29 25.81 28.39
07:47 2 16.6 89 38,459 0.26 3.2 2.4 5 36.95 0 20.86 27.84 30.63
07:46 2 16.6 89 38,459 0.23 2.52 2.43 1.69 40.39 0 17.43 25.8 28.38
07:45 2 16.6 89 38,459 0.24 2.86 2.4 1.91 41.29 0 20.86 27.83 30.61